Terminal Aerodrome Forecast
Issued by NWS Charleston, WV

Current Version | Previous Version | Graphics & Text | Print | Product List | Glossary On
Versions: 1 2 3 4 5 6 7 8 9 10 11 12 13 14 15 16 17 18 19 20 21 22 23 24 25 26 27 28
000
FTUS41 KRLX 131100
TAFEKN
TAF
KEKN 131120Z 1312/1412 31003KT P6SM VCSH OVC025
      TEMPO 1312/1315 4SM -SHRA BR BKN015
     FM131500 VRB03KT 4SM SHRA BR OVC015
     FM131700 28005KT P6SM OVC015
     FM132000 30006KT P6SM BKN015
     FM140300 00000KT 4SM BR SCT025
     FM140900 00000KT 1/2SM FG VV001=

USA.gov is the U.S. government's official web portal to all federal, state and local government web resources and services.